sensor_id;sensor_type;location;lat;lon;timestamp;P1;durP1;ratioP1;P2;durP2;ratioP2
25984;SDS011;66753;53.848;10.658;2023-10-31T00:11:45;6.37;;;3.10;;
25984;SDS011;66753;53.848;10.658;2023-10-31T00:26:46;7.33;;;2.67;;
25984;SDS011;66753;53.848;10.658;2023-10-31T00:41:48;4.97;;;2.43;;
25984;SDS011;66753;53.848;10.658;2023-10-31T00:56:49;5.10;;;2.70;;
25984;SDS011;66753;53.848;10.658;2023-10-31T01:11:50;5.13;;;1.90;;
25984;SDS011;66753;53.848;10.658;2023-10-31T01:26:51;5.53;;;1.90;;
25984;SDS011;66753;53.848;10.658;2023-10-31T01:41:53;4.97;;;2.07;;
25984;SDS011;66753;53.848;10.658;2023-10-31T01:56:58;4.27;;;2.50;;
25984;SDS011;66753;53.848;10.658;2023-10-31T02:12:00;7.27;;;2.40;;
25984;SDS011;66753;53.848;10.658;2023-10-31T02:27:02;4.47;;;1.80;;
25984;SDS011;66753;53.848;10.658;2023-10-31T02:42:04;4.93;;;2.20;;
25984;SDS011;66753;53.848;10.658;2023-10-31T02:57:06;4.87;;;2.20;;
25984;SDS011;66753;53.848;10.658;2023-10-31T03:12:08;5.50;;;2.10;;
25984;SDS011;66753;53.848;10.658;2023-10-31T03:27:09;4.20;;;1.83;;
25984;SDS011;66753;53.848;10.658;2023-10-31T03:42:11;4.80;;;1.97;;
25984;SDS011;66753;53.848;10.658;2023-10-31T03:57:13;4.83;;;2.20;;
25984;SDS011;66753;53.848;10.658;2023-10-31T04:12:14;5.30;;;2.20;;
25984;SDS011;66753;53.848;10.658;2023-10-31T04:27:16;5.53;;;2.57;;
25984;SDS011;66753;53.848;10.658;2023-10-31T04:42:17;5.50;;;2.50;;
25984;SDS011;66753;53.848;10.658;2023-10-31T04:57:20;5.97;;;3.33;;
25984;SDS011;66753;53.848;10.658;2023-10-31T05:12:23;5.47;;;3.13;;
25984;SDS011;66753;53.848;10.658;2023-10-31T05:27:24;6.87;;;3.47;;
25984;SDS011;66753;53.848;10.658;2023-10-31T05:42:25;7.63;;;3.53;;
25984;SDS011;66753;53.848;10.658;2023-10-31T05:57:27;6.73;;;3.27;;
25984;SDS011;66753;53.848;10.658;2023-10-31T06:12:28;5.93;;;3.33;;
25984;SDS011;66753;53.848;10.658;2023-10-31T06:27:30;6.83;;;3.83;;
25984;SDS011;66753;53.848;10.658;2023-10-31T06:42:32;5.50;;;3.70;;
25984;SDS011;66753;53.848;10.658;2023-10-31T06:57:33;6.97;;;3.47;;
25984;SDS011;66753;53.848;10.658;2023-10-31T07:12:34;13.60;;;4.13;;
25984;SDS011;66753;53.848;10.658;2023-10-31T07:27:36;7.63;;;3.87;;
25984;SDS011;66753;53.848;10.658;2023-10-31T07:42:37;9.10;;;4.50;;
25984;SDS011;66753;53.848;10.658;2023-10-31T07:57:38;9.47;;;4.17;;
25984;SDS011;66753;53.848;10.658;2023-10-31T08:12:40;7.10;;;3.67;;
25984;SDS011;66753;53.848;10.658;2023-10-31T08:27:41;6.37;;;2.87;;
25984;SDS011;66753;53.848;10.658;2023-10-31T08:42:43;4.50;;;2.23;;
25984;SDS011;66753;53.848;10.658;2023-10-31T08:57:44;4.17;;;1.73;;
25984;SDS011;66753;53.848;10.658;2023-10-31T09:12:46;2.20;;;1.07;;
25984;SDS011;66753;53.848;10.658;2023-10-31T09:27:47;4.87;;;2.77;;
25984;SDS011;66753;53.848;10.658;2023-10-31T09:42:48;2.80;;;1.37;;
25984;SDS011;66753;53.848;10.658;2023-10-31T09:57:50;2.20;;;1.00;;
25984;SDS011;66753;53.848;10.658;2023-10-31T10:12:51;2.23;;;0.70;;
25984;SDS011;66753;53.848;10.658;2023-10-31T10:27:53;2.90;;;1.40;;
25984;SDS011;66753;53.848;10.658;2023-10-31T10:42:54;2.53;;;1.10;;
25984;SDS011;66753;53.848;10.658;2023-10-31T10:58:07;0.43;;;0.10;;
25984;SDS011;66753;53.848;10.658;2023-10-31T11:13:37;0.30;;;0.10;;
25984;SDS011;66753;53.848;10.658;2023-10-31T11:28:38;0.07;;;0.00;;
25984;SDS011;66753;53.848;10.658;2023-10-31T11:58:41;0.57;;;0.17;;
25984;SDS011;66753;53.848;10.658;2023-10-31T12:44:22;0.67;;;0.20;;
25984;SDS011;66753;53.848;10.658;2023-10-31T12:59:27;0.70;;;0.37;;
25984;SDS011;66753;53.848;10.658;2023-10-31T13:14:28;0.30;;;0.20;;
25984;SDS011;66753;53.848;10.658;2023-10-31T13:29:30;2.57;;;1.00;;
25984;SDS011;66753;53.848;10.658;2023-10-31T13:44:31;3.47;;;0.90;;
25984;SDS011;66753;53.848;10.658;2023-10-31T13:59:33;1.00;;;0.40;;
25984;SDS011;66753;53.848;10.658;2023-10-31T14:14:41;1.90;;;0.53;;
25984;SDS011;66753;53.848;10.658;2023-10-31T14:29:42;1.50;;;0.80;;
25984;SDS011;66753;53.848;10.658;2023-10-31T14:44:44;1.30;;;0.50;;
25984;SDS011;66753;53.848;10.658;2023-10-31T14:59:46;1.33;;;0.50;;
25984;SDS011;66753;53.848;10.658;2023-10-31T15:14:48;3.30;;;1.30;;
25984;SDS011;66753;53.848;10.658;2023-10-31T15:29:49;1.73;;;0.60;;
25984;SDS011;66753;53.848;10.658;2023-10-31T15:44:50;1.77;;;0.47;;
25984;SDS011;66753;53.848;10.658;2023-10-31T15:59:52;1.00;;;0.40;;
25984;SDS011;66753;53.848;10.658;2023-10-31T16:14:53;1.03;;;0.40;;
25984;SDS011;66753;53.848;10.658;2023-10-31T16:29:54;1.53;;;0.50;;
25984;SDS011;66753;53.848;10.658;2023-10-31T16:44:56;1.03;;;0.60;;
25984;SDS011;66753;53.848;10.658;2023-10-31T17:00:06;3.23;;;0.70;;
25984;SDS011;66753;53.848;10.658;2023-10-31T17:15:09;2.63;;;0.70;;
25984;SDS011;66753;53.848;10.658;2023-10-31T17:30:11;3.87;;;1.27;;
25984;SDS011;66753;53.848;10.658;2023-10-31T17:45:13;1.60;;;0.70;;
25984;SDS011;66753;53.848;10.658;2023-10-31T18:00:15;1.97;;;0.73;;
25984;SDS011;66753;53.848;10.658;2023-10-31T18:15:19;4.00;;;1.67;;
25984;SDS011;66753;53.848;10.658;2023-10-31T18:30:21;3.57;;;0.80;;
25984;SDS011;66753;53.848;10.658;2023-10-31T18:45:22;4.90;;;1.27;;
25984;SDS011;66753;53.848;10.658;2023-10-31T19:00:24;2.80;;;1.10;;
25984;SDS011;66753;53.848;10.658;2023-10-31T19:15:25;5.13;;;1.20;;
25984;SDS011;66753;53.848;10.658;2023-10-31T19:30:29;5.07;;;1.20;;
25984;SDS011;66753;53.848;10.658;2023-10-31T19:45:30;3.60;;;1.30;;
25984;SDS011;66753;53.848;10.658;2023-10-31T20:00:32;4.10;;;1.60;;
25984;SDS011;66753;53.848;10.658;2023-10-31T20:15:33;3.30;;;1.33;;
25984;SDS011;66753;53.848;10.658;2023-10-31T20:30:35;2.90;;;1.53;;
25984;SDS011;66753;53.848;10.658;2023-10-31T20:45:37;2.97;;;1.43;;
25984;SDS011;66753;53.848;10.658;2023-10-31T21:00:38;3.27;;;1.53;;
25984;SDS011;66753;53.848;10.658;2023-10-31T21:15:40;4.00;;;1.27;;
25984;SDS011;66753;53.848;10.658;2023-10-31T21:30:41;2.77;;;1.13;;
25984;SDS011;66753;53.848;10.658;2023-10-31T21:45:42;3.60;;;1.40;;
25984;SDS011;66753;53.848;10.658;2023-10-31T22:00:44;4.03;;;1.70;;
25984;SDS011;66753;53.848;10.658;2023-10-31T22:15:46;4.43;;;2.00;;
25984;SDS011;66753;53.848;10.658;2023-10-31T22:30:47;4.60;;;1.20;;
25984;SDS011;66753;53.848;10.658;2023-10-31T22:45:48;5.47;;;1.83;;
25984;SDS011;66753;53.848;10.658;2023-10-31T23:00:50;2.97;;;1.53;;
25984;SDS011;66753;53.848;10.658;2023-10-31T23:15:51;2.87;;;1.53;;
25984;SDS011;66753;53.848;10.658;2023-10-31T23:30:52;2.83;;;1.03;;
25984;SDS011;66753;53.848;10.658;2023-10-31T23:45:53;2.97;;;0.90;;
